Terminal Aerodrome Forecast
Issued by NWS Milwaukee/Sullivan, WI

Home | Current Version | Previous Version | Text Only | Print | Product List | Glossary On
Versions: 1 2 3 4 5 6 7 8 9 10 11 12 13 14 15 16 17 18 19 20 21 22 23 24 25 26 27 28 29 30
000
FTUS43 KMKX 242338
TAFMSN
TAF
KMSN 242338Z 2500/2524 01012KT 4SM -FZDZ BR BKN009 OVC015
     FM250300 35012KT 2SM -FZDZSN BR OVC008
     FM250600 34011KT 2SM -SN BR OVC008
     FM250800 33012G20KT 1 1/2SM -SN BR OVC015
     FM251200 32012G23KT 3SM BR VCSH OVC020
     FM251500 31013G23KT P6SM BKN035=

USA.gov is the U.S. government's official web portal to all federal, state and local government web resources and services.